Flight Track Log - Related Links

Times and Time Zones

All times are in EDT time to prevent confusion due to time zone crossing. See the BEE2821 flight status page for this flight to view local times or setup timezone preferences in your user account.

Time Position Orientation Groundspeed Altitude Reporting Facility
EDT Latitude Longitude Course Direction KTS MPH feet Rate Location/Type
Tue 01:38:00 AM 59.9352 24.0819 229° Southwest  Level Estimated
Tue 01:39:00 AM 59.8582 23.9080 229° Southwest  Level Estimated
Tue 01:40:00 AM 59.7808 23.7350 228° Southwest  Level Estimated
Tue 01:41:00 AM 59.7033 23.5627 228° Southwest  Level Estimated
Tue 01:42:00 AM 59.6255 23.3913 228° Southwest  Level Estimated
Tue 01:43:00 AM 59.5475 23.2206 228° Southwest  Level Estimated
Tue 01:44:00 AM 59.4693 23.0508 228° Southwest  Level Estimated
Tue 01:45:00 AM 59.3909 22.8817 228° Southwest  Level Estimated
Tue 01:46:00 AM 59.3122 22.7134 228° Southwest  Level Estimated
Tue 01:47:00 AM 59.2333 22.5459 227° Southwest  Level Estimated
Tue 01:48:00 AM 59.1543 22.3791 227° Southwest  Level Estimated
Tue 01:49:00 AM 59.0750 22.2131 227° Southwest  Level Estimated
Tue 01:50:00 AM 58.9954 22.0479 227° Southwest  Level Estimated
Tue 01:51:00 AM 58.9157 21.8835 227° Southwest  Level Estimated
Tue 01:52:00 AM 58.8358 21.7198 227° Southwest  Level Estimated
Tue 01:53:00 AM 58.7557 21.5569 227° Southwest  Level Estimated
Tue 01:54:00 AM 58.6753 21.3947 226° Southwest  Level Estimated
Tue 01:55:00 AM 58.5948 21.2332 226° Southwest  Level Estimated
Tue 01:56:00 AM 58.5141 21.0725 226° Southwest  Level Estimated
Tue 01:57:00 AM 58.4331 20.9126 226° Southwest  Level Estimated
Tue 01:58:00 AM 58.3520 20.7534 226° Southwest  Level Estimated
Tue 01:59:00 AM 58.2706 20.5949 226° Southwest  Level Estimated
Tue 02:00:00 AM 58.1891 20.4371 226° Southwest  Level Estimated
Tue 02:01:00 AM 58.1074 20.2801 225° Southwest  Level Estimated
Tue 02:02:00 AM 58.0255 20.1238 225° Southwest  Level Estimated
Tue 02:03:00 AM 57.9434 19.9681 225° Southwest  Level Estimated
Tue 02:04:00 AM 57.8611 19.8132 225° Southwest  Level Estimated
Tue 02:05:00 AM 57.7786 19.6590 225° Southwest  Level Estimated
Tue 02:06:00 AM 57.6959 19.5056 225° Southwest  Level Estimated
Tue 02:07:00 AM 57.6131 19.3528 225° Southwest  Level Estimated
Tue 02:08:00 AM 57.5300 19.2007 225° Southwest  Level Estimated
Tue 02:09:00 AM 57.4468 19.0493 224° Southwest  Level Estimated
Tue 02:10:00 AM 57.3634 18.8986 224° Southwest  Level Estimated
Tue 02:11:00 AM 57.2798 18.7486 224° Southwest  Level Estimated
Tue 02:12:00 AM 57.1961 18.5992 224° Southwest  Level Estimated
Tue 02:13:00 AM 57.1121 18.4506 224° Southwest  Level Estimated
Tue 02:14:00 AM 57.0280 18.3026 224° Southwest  Level Estimated
Tue 02:15:00 AM 56.9438 18.1552 224° Southwest  Level Estimated
Tue 02:16:00 AM 56.8593 18.0086 224° Southwest  Level Estimated
Tue 02:17:00 AM 56.7747 17.8626 223° Southwest  Level Estimated
Tue 02:18:00 AM 56.6899 17.7172 223° Southwest  Level Estimated
Tue 02:19:00 AM 56.6049 17.5725 223° Southwest  Level Estimated
Tue 02:20:00 AM 56.5198 17.4285 223° Southwest  Level Estimated
Tue 02:21:00 AM 56.4345 17.2851 223° Southwest  Level Estimated
Tue 02:22:00 AM 56.3490 17.1424 223° Southwest  Level Estimated
Tue 02:23:00 AM 56.2634 17.0003 223° Southwest  Level Estimated
Tue 02:24:00 AM 56.1776 16.8588 223° Southwest  Level Estimated
Tue 02:25:00 AM 56.0917 16.7180 222° Southwest  Level Estimated
Tue 02:26:00 AM 56.0056 16.5777 222° Southwest  Level Estimated
Tue 02:27:00 AM 55.9193 16.4381 222° Southwest  Level Estimated
Tue 02:28:00 AM 55.8329 16.2992 222° Southwest  Level Estimated
Tue 02:29:00 AM 55.7463 16.1608 222° Southwest  Level Estimated
Tue 02:30:00 AM 55.6595 16.0231 222° Southwest  Level Estimated
Tue 02:31:00 AM 55.5727 15.8860 222° Southwest  Level Estimated
Tue 02:32:00 AM 55.4856 15.7494 222° Southwest  Level Estimated
Tue 02:33:00 AM 55.3984 15.6135 222° Southwest  Level Estimated
Tue 02:34:00 AM 55.3111 15.4782 221° Southwest  Level Estimated
Tue 02:35:00 AM 55.2236 15.3434 221° Southwest  Level Estimated
Tue 02:36:00 AM 55.1360 15.2093 221° Southwest  Level Estimated
Tue 02:37:00 AM 55.0482 15.0758 221° Southwest  Level Estimated
Tue 02:38:00 AM 54.9603 14.9428 221° Southwest  Level Estimated
Tue 02:39:00 AM 54.8722 14.8104 221° Southwest  Level Estimated
Tue 02:40:00 AM 54.7840 14.6786 221° Southwest  Level Estimated
Tue 02:41:00 AM 54.6956 14.5474 221° Southwest  Level Estimated
Tue 02:42:00 AM 54.6071 14.4167 221° Southwest  Level Estimated
Tue 02:43:00 AM 54.5185 14.2866 220° Southwest  Level Estimated
Tue 02:44:00 AM 54.4297 14.1571 220° Southwest  Level Estimated
Tue 02:45:00 AM 54.3408 14.0281 220° Southwest  Level Estimated
Tue 02:46:00 AM 54.2517 13.8997 220° Southwest  Level Estimated
Tue 02:47:00 AM 54.1625 13.7719 220° Southwest  Level Estimated
Tue 02:48:00 AM 54.0732 13.6446 220° Southwest  Level Estimated
Tue 02:49:00 AM 53.9837 13.5178 220° Southwest  Level Estimated
Tue 02:50:00 AM 53.8941 13.3916 220° Southwest  Level Estimated
Tue 02:51:00 AM 53.8044 13.2659 220° Southwest  Level Estimated
Tue 02:52:00 AM 53.7146 13.1407 220° Southwest  Level Estimated
Tue 02:53:00 AM 53.6246 13.0162 219° Southwest  Level Estimated
Tue 02:54:00 AM 53.5345 12.8921 219° Southwest  Level Estimated
Tue 02:55:00 AM 53.4442 12.7685 219° Southwest  Level Estimated
Tue 02:56:00 AM 53.3539 12.6455 219° Southwest  Level Estimated
Tue 02:57:00 AM 53.2634 12.5230 219° Southwest  Level Estimated
Tue 02:58:00 AM 53.1728 12.4010 219° Southwest  Level Estimated
Tue 02:59:00 AM 53.0820 12.2796 219° Southwest  Level Estimated
Tue 03:00:00 AM 52.9911 12.1586 219° Southwest  Level Estimated
Tue 03:01:00 AM 52.9002 12.0381 219° Southwest  Level Estimated
Tue 03:02:00 AM 52.8091 11.9182 219° Southwest  Level Estimated
Tue 03:03:00 AM 52.7178 11.7988 218° Southwest  Level Estimated
Tue 03:04:00 AM 52.6265 11.6798 218° Southwest  Level Estimated
Tue 03:05:00 AM 52.5350 11.5614 218° Southwest  Level Estimated
Tue 03:06:00 AM 52.4434 11.4434 218° Southwest  Level Estimated
Tue 03:07:00 AM 52.3517 11.3259 218° Southwest  Level Estimated
Tue 03:08:00 AM 52.2599 11.2090 218° Southwest  Level Estimated
Tue 03:09:00 AM 52.1680 11.0925 218° Southwest  Level Estimated
Tue 03:10:00 AM 52.0759 10.9765 218° Southwest  Level Estimated
Tue 03:11:00 AM 51.9837 10.8609 218° Southwest  Level Estimated
Tue 03:12:00 AM 51.8915 10.7459 218° Southwest  Level Estimated
Tue 03:13:00 AM 51.7991 10.6313 218° Southwest  Level Estimated
Tue 03:14:00 AM 51.7066 10.5172 217° Southwest  Level Estimated
Tue 03:15:00 AM 51.6140 10.4035 217° Southwest  Level Estimated
Tue 03:16:00 AM 51.5213 10.2903 217° Southwest  Level Estimated
Tue 03:17:00 AM 51.4284 10.1776 217° Southwest  Level Estimated
Tue 03:18:00 AM 51.3355 10.0653 217° Southwest  Level Estimated
Tue 03:19:00 AM 51.2425 9.9535 217° Southwest  Level Estimated
Tue 03:20:00 AM 51.1493 9.8421 217° Southwest  Level Estimated
Tue 03:21:00 AM 51.0561 9.7312 217° Southwest  Level Estimated
Tue 03:22:00 AM 50.9627 9.6207 217° Southwest  Level Estimated
Tue 03:23:00 AM 50.8693 9.5107 217° Southwest  Level Estimated
Tue 03:24:00 AM 50.7757 9.4011 217° Southwest  Level Estimated
Tue 03:25:00 AM 50.6820 9.2920 216° Southwest  Level Estimated
Tue 03:26:00 AM 50.5883 9.1833 216° Southwest  Level Estimated
Tue 03:27:00 AM 50.4944 9.0750 216° Southwest  Level Estimated
Tue 03:28:00 AM 50.4004 8.9671 216° Southwest  Level Estimated
Tue 03:29:00 AM 50.3064 8.8597 216° Southwest  Level Estimated
Tue 03:30:00 AM 50.2122 8.7527 216° Southwest  Level Estimated
Tue 03:31:00 AM 50.1179 8.6461 216° Southwest  Level Estimated
Tue 03:32:00 AM 50.0264 8.5431 216° Southwest  Level Estimated
Tue 03:33:00 AM 50.0264 8.5431 73° East  Level Estimated
Tue 03:34:00 AM 50.0264 8.5431 73° East  Level Estimated
Tue 03:35:00 AM 50.0264 8.5431 73° East  Level Estimated
Tue 03:36:00 AM 50.0264 8.5431 73° East  Level Estimated
Tue 03:37:00 AM 50.0264 8.5431 73° East  Level Estimated
Tue 03:38:00 AM 50.0264 8.5431 73° East  Level Estimated
Tue 03:39:00 AM 50.0264 8.5431 73° East  Level Estimated
Tue 03:40:00 AM 50.0264 8.5431 73° East  Level Estimated
Tue 03:41:00 AM 50.0264 8.5431 73° East  Level Estimated
Tue 03:42:00 AM 50.0264 8.5431 73° East  Level Estimated
Tue 03:43:00 AM 50.0264 8.5431 73° East  Level Estimated
Tue 03:44:00 AM 50.0264 8.5431 73° East  Level Estimated
Tue 03:45:00 AM 50.0264 8.5431 73° East  Level Estimated
Tue 03:46:00 AM 50.0264 8.5431 73° East  Level Estimated
Tue 03:47:00 AM 50.0264 8.5431 73° East  Level Estimated
Tue 03:48:00 AM 50.0264 8.5431 73° East  Level Estimated

Login

Don't have an account? Register now (free) for customized features, flight alerts, and more!